createdAt,value
2014-09-22T00:00:28.089Z,16.62
2014-09-22T00:01:32.777Z,16.43
2014-09-22T00:02:37.467Z,16.59
2014-09-22T00:03:42.142Z,16.46
2014-09-22T00:04:46.831Z,16.76
2014-09-22T00:05:51.505Z,16.66
2014-09-22T00:06:56.195Z,16.49
2014-09-22T00:08:00.869Z,16.27
2014-09-22T00:09:05.855Z,16.34
2014-09-22T00:10:10.826Z,16.32
2014-09-22T00:11:15.515Z,16.18
2014-09-22T00:12:20.188Z,16.47
2014-09-22T00:13:25.174Z,16.55
2014-09-22T00:14:29.848Z,16.44
2014-09-22T00:15:34.834Z,16.72
2014-09-22T00:16:39.805Z,16.67
2014-09-22T00:17:44.495Z,16.47
2014-09-22T00:18:49.468Z,16.44
2014-09-22T00:19:54.156Z,16.4
2014-09-22T00:20:58.830Z,16.14
2014-09-22T00:22:03.816Z,16.17
2014-09-22T00:23:08.490Z,16.04
2014-09-22T00:24:13.180Z,15.88
2014-09-22T00:25:17.854Z,15.72
2014-09-22T00:26:22.543Z,15.78
2014-09-22T00:27:27.514Z,15.86
2014-09-22T00:28:32.500Z,15.58
2014-09-22T00:29:37.174Z,15.64
2014-09-22T00:30:41.864Z,15.99
2014-09-22T00:31:46.540Z,15.91
2014-09-22T00:32:51.213Z,16.1
2014-09-22T00:33:55.902Z,16.28
2014-09-22T00:35:00.576Z,16.23
2014-09-22T00:36:05.265Z,16.03
2014-09-22T00:37:09.939Z,16.16
2014-09-22T00:38:14.629Z,16.24
2014-09-22T00:39:19.304Z,16.22
2014-09-22T00:40:23.993Z,16.1
2014-09-22T00:41:28.964Z,16.11
2014-09-22T00:42:33.638Z,15.96
2014-09-22T00:43:38.327Z,16.13
2014-09-22T00:44:43.299Z,16.19
2014-09-22T00:45:47.973Z,16.3
2014-09-22T00:46:52.662Z,16.49
2014-09-22T00:47:57.632Z,16.24
2014-09-22T00:49:02.619Z,15.92
2014-09-22T00:50:07.292Z,15.92
2014-09-22T00:51:11.983Z,15.99
2014-09-22T00:52:16.671Z,15.79
2014-09-22T00:53:21.643Z,16.12
2014-09-22T00:54:26.614Z,16.25
2014-09-22T00:55:31.303Z,16.16
2014-09-22T00:56:35.993Z,16.12
2014-09-22T00:57:40.964Z,16.12
2014-09-22T00:58:45.654Z,15.66
2014-09-22T00:59:50.328Z,15.59
2014-09-22T01:00:55.313Z,15.98
2014-09-22T01:01:59.987Z,15.96
2014-09-22T01:03:04.677Z,15.85
2014-09-22T01:04:09.351Z,15.9
2014-09-22T01:05:14.321Z,15.82
2014-09-22T01:06:19.011Z,16
2014-09-22T01:07:23.685Z,16.19
2014-09-22T01:08:28.375Z,16.14
2014-09-22T01:09:33.050Z,16.16
2014-09-22T01:10:37.739Z,16.1
2014-09-22T01:11:42.726Z,16
2014-09-22T01:12:47.400Z,15.7
2014-09-22T01:13:52.088Z,15.68
2014-09-22T01:14:57.059Z,15.72
2014-09-22T01:16:02.045Z,15.43
2014-09-22T01:17:06.719Z,15.68
2014-09-22T01:18:11.707Z,15.82
2014-09-22T01:19:16.396Z,15.86
2014-09-22T01:20:21.070Z,15.64
2014-09-22T01:21:25.760Z,15.46
2014-09-22T01:22:30.730Z,15.44
2014-09-22T01:23:35.718Z,15.5
2014-09-22T01:24:40.391Z,15.71
2014-09-22T01:25:45.080Z,15.75
2014-09-22T01:26:49.754Z,15.62
2014-09-22T01:27:54.443Z,15.55
2014-09-22T01:28:59.117Z,15.46
2014-09-22T01:30:03.808Z,15.66
2014-09-22T01:31:08.794Z,15.41
2014-09-22T01:32:13.468Z,15.47
2014-09-22T01:33:18.158Z,15.71
2014-09-22T01:34:23.144Z,15.85
2014-09-22T01:35:27.818Z,15.88
2014-09-22T01:36:32.803Z,15.75
2014-09-22T01:37:37.478Z,15.61
2014-09-22T01:38:42.464Z,15.66
2014-09-22T01:39:47.154Z,15.57
2014-09-22T01:40:51.828Z,15.7
2014-09-22T01:41:56.517Z,16.01
2014-09-22T01:43:01.191Z,15.89
2014-09-22T01:44:05.881Z,15.75
2014-09-22T01:45:10.867Z,15.57
2014-09-22T01:46:15.853Z,15.46
2014-09-22T01:47:20.527Z,15.49
2014-09-22T01:48:25.811Z,15.33
2014-09-22T01:49:30.484Z,15.58
2014-09-22T01:50:35.471Z,15.36
2014-09-22T01:51:40.159Z,15.6
2014-09-22T01:52:45.130Z,15.72
2014-09-22T01:53:49.820Z,15.26
2014-09-22T01:54:54.808Z,15.3
2014-09-22T01:55:59.482Z,15.13
2014-09-22T01:57:04.171Z,15.15
2014-09-22T01:58:08.845Z,15.28
2014-09-22T01:59:13.832Z,15.37
2014-09-22T02:00:18.505Z,15.41
2014-09-22T02:01:23.194Z,15.26
2014-09-22T02:02:27.869Z,15.39
2014-09-22T02:03:32.543Z,15.42
2014-09-22T02:04:37.232Z,15.42
2014-09-22T02:05:41.906Z,15.37
2014-09-22T02:06:46.891Z,15.38
2014-09-22T02:07:51.619Z,15.28
2014-09-22T02:08:56.330Z,15.38
2014-09-22T02:10:01.057Z,15.47
2014-09-22T02:11:06.080Z,15.58
2014-09-22T02:12:10.782Z,15.6
2014-09-22T02:13:15.470Z,15.65
2014-09-22T02:14:19.485Z,15.64
2014-09-22T02:15:24.173Z,15.52
2014-09-22T02:16:28.875Z,15.56
2014-09-22T02:17:33.562Z,15.31
2014-09-22T02:18:38.259Z,15.29
2014-09-22T02:19:42.937Z,15.2
2014-09-22T02:20:47.617Z,15
2014-09-22T02:21:52.608Z,15.43
2014-09-22T02:22:57.284Z,15.51
2014-09-22T02:24:01.975Z,15.43
2014-09-22T02:25:06.667Z,15.55
2014-09-22T02:26:11.639Z,15.44
2014-09-22T02:27:16.330Z,15.67
2014-09-22T02:28:21.316Z,15.76
2014-09-22T02:29:25.990Z,15.43
2014-09-22T02:30:30.680Z,15.45
2014-09-22T02:31:35.370Z,15.42
2014-09-22T02:32:40.045Z,15.45
2014-09-22T02:33:44.735Z,15.46
2014-09-22T02:34:49.410Z,15.41
2014-09-22T02:35:54.101Z,15.6
2014-09-22T02:36:59.072Z,15.14
2014-09-22T02:38:03.761Z,15.24
2014-09-22T02:39:08.435Z,15.22
2014-09-22T02:40:13.124Z,15.54
2014-09-22T02:41:18.095Z,15.76
2014-09-22T02:42:23.066Z,15.78
2014-09-22T02:43:28.052Z,15.73
2014-09-22T02:44:32.726Z,15.6
2014-09-22T02:45:37.431Z,15.62
2014-09-22T02:46:42.105Z,15.42
2014-09-22T02:47:46.796Z,15.69
2014-09-22T02:48:51.765Z,15.6
2014-09-22T02:49:56.753Z,15.58
2014-09-22T02:51:01.427Z,15.63
2014-09-22T02:52:06.101Z,15.56
2014-09-22T02:53:10.789Z,15.08
2014-09-22T02:54:15.479Z,15.56
2014-09-22T02:55:20.152Z,15.42
2014-09-22T02:56:24.842Z,15.35
2014-09-22T02:57:29.516Z,15.68
2014-09-22T02:58:34.206Z,15.7
2014-09-22T02:59:38.880Z,15.52
2014-09-22T03:00:43.571Z,15.37
2014-09-22T03:01:48.244Z,15.66
2014-09-22T03:02:52.917Z,15.6
2014-09-22T03:03:57.608Z,15.68
2014-09-22T03:05:02.578Z,15.5
2014-09-22T03:06:07.267Z,15.17
2014-09-22T03:07:11.941Z,15.43
2014-09-22T03:08:16.615Z,15.52
2014-09-22T03:09:21.304Z,15.44
2014-09-22T03:10:26.010Z,15.5
2014-09-22T03:11:30.980Z,15.56
2014-09-22T03:12:35.670Z,15.53
2014-09-22T03:13:40.344Z,15.51
2014-09-22T03:14:45.033Z,15.53
2014-09-22T03:15:50.004Z,15.5
2014-09-22T03:16:54.677Z,15.38
2014-09-22T03:17:59.368Z,15.57
2014-09-22T03:19:04.042Z,15.31
2014-09-22T03:20:08.044Z,15.43
2014-09-22T03:21:12.735Z,15.61
2014-09-22T03:22:17.424Z,15.22
2014-09-22T03:23:22.098Z,15.2
2014-09-22T03:24:26.788Z,15.28
2014-09-22T03:25:31.461Z,15.34
2014-09-22T03:26:36.151Z,15.16
2014-09-22T03:27:40.825Z,15.24
2014-09-22T03:28:45.499Z,15.16
2014-09-22T03:29:50.188Z,15.34
2014-09-22T03:30:54.863Z,15.43
2014-09-22T03:31:59.552Z,15.44
2014-09-22T03:33:04.538Z,15.34
2014-09-22T03:34:09.212Z,15.52
2014-09-22T03:35:14.198Z,15.56
2014-09-22T03:36:19.169Z,15.47
2014-09-22T03:37:23.858Z,15.37
2014-09-22T03:38:28.532Z,15.26
2014-09-22T03:39:33.221Z,15.3
2014-09-22T03:40:37.896Z,15.12
2014-09-22T03:41:42.585Z,15.3
2014-09-22T03:42:47.572Z,15.42
2014-09-22T03:43:52.558Z,15.22
2014-09-22T03:44:57.529Z,15.22
2014-09-22T03:46:02.517Z,15.5
2014-09-22T03:47:07.502Z,15.48
2014-09-22T03:48:12.193Z,15.12
2014-09-22T03:49:16.867Z,15.14
2014-09-22T03:50:21.556Z,14.95
2014-09-22T03:51:26.527Z,15.12
2014-09-22T03:52:31.201Z,14.98
2014-09-22T03:53:35.890Z,15.04
2014-09-22T03:54:40.861Z,15.14
2014-09-22T03:55:45.535Z,15.16
2014-09-22T03:56:50.225Z,15.36
2014-09-22T03:57:54.898Z,15.32
2014-09-22T03:58:59.572Z,15.32
2014-09-22T04:00:04.559Z,15.48
2014-09-22T04:01:09.545Z,15.59
2014-09-22T04:02:14.220Z,15.54
2014-09-22T04:03:19.206Z,15.58
2014-09-22T04:04:24.177Z,15.56
2014-09-22T04:05:28.851Z,15.32
2014-09-22T04:06:33.540Z,15.45
2014-09-22T04:07:38.214Z,15.49
2014-09-22T04:08:42.887Z,15.45
2014-09-22T04:09:47.578Z,15.52
2014-09-22T04:10:52.252Z,15.58
2014-09-22T04:11:57.238Z,15.54
2014-09-22T04:13:01.913Z,15.56
2014-09-22T04:14:06.601Z,15.54
2014-09-22T04:15:11.572Z,15.58
2014-09-22T04:16:16.262Z,15.59
2014-09-22T04:17:20.935Z,15.64
2014-09-22T04:18:25.609Z,15.54
2014-09-22T04:19:30.283Z,15.47
2014-09-22T04:20:34.973Z,15.64
2014-09-22T04:21:39.958Z,15.6
2014-09-22T04:22:44.632Z,15.54
2014-09-22T04:23:48.634Z,15.6
2014-09-22T04:24:53.308Z,15.42
2014-09-22T04:25:57.982Z,15.28
2014-09-22T04:27:02.970Z,15.5
2014-09-22T04:28:07.644Z,15.61
2014-09-22T04:29:12.333Z,15.76
2014-09-22T04:30:17.006Z,15.38
2014-09-22T04:31:21.993Z,15.54
2014-09-22T04:32:26.667Z,15.74
2014-09-22T04:33:31.653Z,15.99
2014-09-22T04:34:36.624Z,15.91
2014-09-22T04:35:41.299Z,15.88
2014-09-22T04:36:46.285Z,15.78
2014-09-22T04:37:50.960Z,15.6
2014-09-22T04:38:55.649Z,15.78
2014-09-22T04:40:00.323Z,15.66
2014-09-22T04:41:05.294Z,15.32
2014-09-22T04:42:09.983Z,15.56
2014-09-22T04:43:14.672Z,15.66
2014-09-22T04:44:19.347Z,15.57
2014-09-22T04:45:24.333Z,15.74
2014-09-22T04:46:29.007Z,15.57
2014-09-22T04:47:33.993Z,15.48
2014-09-22T04:48:38.666Z,15.43
2014-09-22T04:49:43.356Z,15
2014-09-22T04:50:48.030Z,15.19
2014-09-22T04:51:52.016Z,15.31
2014-09-22T04:52:56.706Z,15.38
2014-09-22T04:54:01.395Z,15.32
2014-09-22T04:55:06.368Z,15.57
2014-09-22T04:56:11.042Z,15.52
2014-09-22T04:57:15.730Z,15.4
2014-09-22T04:58:20.404Z,15.06
2014-09-22T04:59:25.094Z,15.43
2014-09-22T05:00:29.767Z,15.44
2014-09-22T05:01:34.739Z,15.66
2014-09-22T05:02:39.726Z,15.54
2014-09-22T05:03:44.399Z,15.61
2014-09-22T05:04:49.089Z,15.78
2014-09-22T05:05:53.764Z,15.55
2014-09-22T05:06:58.453Z,15.43
2014-09-22T05:08:03.126Z,15.58
2014-09-22T05:09:07.816Z,15.48
2014-09-22T05:10:12.490Z,15.47
2014-09-22T05:11:17.164Z,15.34
2014-09-22T05:12:21.853Z,15.48
2014-09-22T05:13:26.528Z,15.76
2014-09-22T05:14:30.530Z,15.49
2014-09-22T05:15:35.501Z,15.55
2014-09-22T05:16:40.191Z,15.64
2014-09-22T05:17:44.865Z,15.74
2014-09-22T05:18:49.851Z,15.42
2014-09-22T05:19:54.524Z,15.56
2014-09-22T05:20:59.512Z,15.55
2014-09-22T05:22:04.185Z,15.5
2014-09-22T05:23:08.859Z,15.4
2014-09-22T05:24:13.846Z,15.68
2014-09-22T05:25:18.535Z,15.67
2014-09-22T05:26:23.224Z,15.76
2014-09-22T05:27:28.194Z,15.85
2014-09-22T05:28:32.884Z,15.84
2014-09-22T05:29:37.558Z,15.62
2014-09-22T05:30:42.530Z,15.64
2014-09-22T05:31:47.218Z,15.76
2014-09-22T05:32:51.908Z,15.58
2014-09-22T05:33:56.581Z,15.62
2014-09-22T05:35:01.271Z,15.46
2014-09-22T05:36:05.945Z,15.41
2014-09-22T05:37:10.635Z,15.44
2014-09-22T05:38:15.309Z,15.52
2014-09-22T05:39:20.000Z,15.46
2014-09-22T05:40:24.970Z,15.72
2014-09-22T05:41:29.957Z,15.72
2014-09-22T05:42:34.631Z,15.6
2014-09-22T05:43:39.320Z,15.61
2014-09-22T05:44:44.010Z,15.55
2014-09-22T05:45:48.980Z,15.7
2014-09-22T05:46:53.671Z,15.85
2014-09-22T05:47:58.359Z,15.86
2014-09-22T05:49:03.033Z,15.77
2014-09-22T05:50:08.021Z,15.86
2014-09-22T05:51:12.710Z,15.5
2014-09-22T05:52:17.383Z,15.61
2014-09-22T05:53:22.369Z,15.68
2014-09-22T05:54:27.043Z,15.66
2014-09-22T05:55:31.030Z,15.45
2014-09-22T05:56:35.719Z,15.46
2014-09-22T05:57:40.395Z,15.72
2014-09-22T05:58:45.084Z,15.52
2014-09-22T05:59:50.054Z,15.68
2014-09-22T06:00:55.041Z,15.59
2014-09-22T06:01:59.715Z,15.53
2014-09-22T06:03:04.405Z,15.61
2014-09-22T06:04:09.078Z,15.57
2014-09-22T06:05:13.768Z,15.62
2014-09-22T06:06:18.441Z,15.77
2014-09-22T06:07:23.132Z,15.84
2014-09-22T06:08:27.806Z,15.98
2014-09-22T06:09:32.494Z,15.89
2014-09-22T06:10:37.169Z,15.75
2014-09-22T06:11:41.843Z,15.74
2014-09-22T06:12:46.532Z,15.82
2014-09-22T06:13:51.206Z,15.67
2014-09-22T06:14:55.896Z,15.98
2014-09-22T06:16:00.570Z,15.77
2014-09-22T06:17:05.557Z,15.62
2014-09-22T06:18:10.231Z,15.72
2014-09-22T06:19:14.919Z,15.68
2014-09-22T06:20:19.593Z,15.54
2014-09-22T06:21:24.267Z,15.53
2014-09-22T06:22:28.958Z,15.58
2014-09-22T06:23:33.632Z,15.7
2014-09-22T06:24:38.321Z,15.88
2014-09-22T06:25:42.995Z,15.71
2014-09-22T06:26:47.684Z,15.43
2014-09-22T06:27:52.655Z,15.48
2014-09-22T06:28:57.345Z,15.9
2014-09-22T06:30:02.316Z,15.98
2014-09-22T06:31:06.989Z,15.91
2014-09-22T06:32:11.679Z,15.67
2014-09-22T06:33:16.353Z,15.68
2014-09-22T06:34:21.027Z,16.2
2014-09-22T06:35:25.716Z,16.72
2014-09-22T06:36:30.687Z,16.76
2014-09-22T06:37:35.673Z,16.53
2014-09-22T06:38:40.347Z,16.47
2014-09-22T06:39:45.333Z,16.29
2014-09-22T06:40:50.320Z,16.16
2014-09-22T06:41:54.995Z,16.11
2014-09-22T06:42:59.980Z,16.1
2014-09-22T06:44:04.655Z,15.9
2014-09-22T06:45:09.437Z,15.84
2014-09-22T06:46:14.143Z,15.84
2014-09-22T06:47:18.816Z,16.16
2014-09-22T06:48:23.506Z,16.62
2014-09-22T06:49:28.477Z,16.3
2014-09-22T06:50:33.463Z,16.17
2014-09-22T06:51:38.435Z,16.28
2014-09-22T06:52:43.124Z,16.33
2014-09-22T06:53:47.798Z,16.4
2014-09-22T06:54:52.487Z,16.71
2014-09-22T06:55:57.160Z,18.08
2014-09-22T06:57:01.459Z,18.07
2014-09-22T06:58:06.133Z,17.92
2014-09-22T06:59:10.807Z,17.26
2014-09-22T07:00:15.498Z,16.82
2014-09-22T07:01:20.485Z,16.92
2014-09-22T07:02:24.487Z,16.68
2014-09-22T07:03:29.458Z,16.56
2014-09-22T07:04:34.444Z,16.48
2014-09-22T07:05:39.118Z,16.43
2014-09-22T07:06:43.807Z,16.58
2014-09-22T07:07:48.482Z,16.42
2014-09-22T07:08:53.171Z,16.6
2014-09-22T07:09:58.142Z,16.5
2014-09-22T07:11:03.425Z,16.52
2014-09-22T07:12:08.114Z,16.56
2014-09-22T07:13:12.788Z,16.51
2014-09-22T07:14:17.774Z,16.65
2014-09-22T07:15:22.762Z,16.07
2014-09-22T07:16:27.435Z,16.43
2014-09-22T07:17:32.124Z,16.66
2014-09-22T07:18:36.798Z,16.54
2014-09-22T07:19:41.489Z,16.58
2014-09-22T07:20:46.178Z,16.79
2014-09-22T07:21:50.852Z,16.72
2014-09-22T07:22:55.541Z,16.71
2014-09-22T07:24:00.214Z,16.86
2014-09-22T07:25:04.888Z,17.33
2014-09-22T07:26:09.875Z,17.36
2014-09-22T07:27:14.550Z,17.3
2014-09-22T07:28:19.537Z,17.53
2014-09-22T07:29:24.211Z,17.51
2014-09-22T07:30:28.900Z,17.52
2014-09-22T07:31:33.871Z,17.54
2014-09-22T07:32:38.559Z,17.98
2014-09-22T07:33:43.249Z,18.37
2014-09-22T07:34:47.923Z,18.23
2014-09-22T07:35:52.909Z,17.58
2014-09-22T07:36:57.584Z,17.26
2014-09-22T07:38:02.275Z,17.15
2014-09-22T07:39:06.963Z,17.17
2014-09-22T07:40:11.935Z,17.27
2014-09-22T07:41:16.906Z,17.04
2014-09-22T07:42:21.594Z,17.2
2014-09-22T07:43:26.268Z,17.16
2014-09-22T07:44:31.254Z,17.08
2014-09-22T07:45:36.242Z,16.99
2014-09-22T07:46:40.916Z,17.07
2014-09-22T07:47:45.604Z,16.89
2014-09-22T07:48:50.576Z,17.15
2014-09-22T07:49:55.281Z,16.96
2014-09-22T07:50:59.955Z,16.82
2014-09-22T07:52:04.643Z,16.67
2014-09-22T07:53:09.317Z,16.76
2014-09-22T07:54:14.007Z,16.8
2014-09-22T07:55:18.683Z,17
2014-09-22T07:56:23.356Z,16.84
2014-09-22T07:57:28.046Z,16.83
2014-09-22T07:58:33.032Z,16.96
2014-09-22T07:59:37.706Z,16.79
2014-09-22T08:00:42.397Z,16.78
2014-09-22T08:01:47.070Z,16.86
2014-09-22T08:02:52.056Z,16.7
2014-09-22T08:03:56.731Z,16.8
2014-09-22T08:05:01.419Z,16.78
2014-09-22T08:06:06.391Z,16.91
2014-09-22T08:07:11.081Z,16.78
2014-09-22T08:08:15.754Z,16.99
2014-09-22T08:09:20.741Z,17.02
2014-09-22T08:10:25.415Z,16.93
2014-09-22T08:11:30.104Z,16.47
2014-09-22T08:12:35.075Z,16.7
2014-09-22T08:13:39.764Z,16.65
2014-09-22T08:14:44.438Z,16.31
2014-09-22T08:15:49.425Z,16.58
2014-09-22T08:16:54.099Z,16.53
2014-09-22T08:17:58.789Z,16.77
2014-09-22T08:19:03.463Z,16.68
2014-09-22T08:20:08.448Z,16.6
2014-09-22T08:21:13.122Z,16.58
2014-09-22T08:22:17.813Z,16.75
2014-09-22T08:23:22.782Z,16.79
2014-09-22T08:24:27.473Z,16.5
2014-09-22T08:25:32.443Z,16.51
2014-09-22T08:26:37.431Z,16.02
2014-09-22T08:27:42.104Z,15.86
2014-09-22T08:28:46.793Z,16.21
2014-09-22T08:29:51.764Z,16.2
2014-09-22T08:30:56.454Z,16.54
2014-09-22T08:32:01.440Z,16.52
2014-09-22T08:33:06.412Z,16.51
2014-09-22T08:34:11.086Z,16.21
2014-09-22T08:35:16.072Z,16.32
2014-09-22T08:36:20.746Z,16.38
2014-09-22T08:37:25.435Z,16.69
2014-09-22T08:38:30.109Z,16.5
2014-09-22T08:39:34.799Z,16.21
2014-09-22T08:40:39.472Z,16.12
2014-09-22T08:41:44.458Z,16.33
2014-09-22T08:42:49.132Z,16.4
2014-09-22T08:43:53.821Z,16.32
2014-09-22T08:44:58.495Z,16.54
2014-09-22T08:46:03.187Z,16.48
2014-09-22T08:47:07.875Z,16.61
2014-09-22T08:48:12.863Z,16.5
2014-09-22T08:49:17.832Z,16.38
2014-09-22T08:50:22.820Z,16.56
2014-09-22T08:51:27.493Z,16.52
2014-09-22T08:52:32.167Z,16.73
2014-09-22T08:53:36.856Z,16.82
2014-09-22T08:54:41.842Z,16.84
2014-09-22T08:55:46.517Z,16.57
2014-09-22T08:56:51.503Z,16.68
2014-09-22T08:57:56.491Z,16.65
2014-09-22T08:59:01.165Z,16.4
2014-09-22T09:00:05.853Z,16.42
2014-09-22T09:01:10.527Z,16.43
2014-09-22T09:02:15.218Z,16.54
2014-09-22T09:03:19.907Z,16.8
2014-09-22T09:04:24.877Z,16.82
2014-09-22T09:05:29.567Z,16.46
2014-09-22T09:06:34.240Z,16.45
2014-09-22T09:07:38.914Z,16.4
2014-09-22T09:08:43.605Z,16.55
2014-09-22T09:09:48.279Z,16.56
2014-09-22T09:10:53.266Z,16.56
2014-09-22T09:11:57.955Z,16.5
2014-09-22T09:13:02.628Z,16.47
2014-09-22T09:14:07.318Z,16.28
2014-09-22T09:15:11.993Z,16.34
2014-09-22T09:16:16.681Z,16.29
2014-09-22T09:17:21.356Z,16.48
2014-09-22T09:18:26.342Z,16.59
2014-09-22T09:19:31.031Z,16.59
2014-09-22T09:20:35.706Z,16.63
2014-09-22T09:21:40.395Z,16.9
2014-09-22T09:22:45.365Z,16.9
2014-09-22T09:23:50.040Z,16.59
2014-09-22T09:24:54.730Z,16.52
2014-09-22T09:25:59.716Z,16.46
2014-09-22T09:27:03.702Z,16.56
2014-09-22T09:28:08.392Z,16.81
2014-09-22T09:29:13.363Z,16.87
2014-09-22T09:30:18.053Z,16.94
2014-09-22T09:31:22.727Z,16.93
2014-09-22T09:32:27.712Z,16.71
2014-09-22T09:33:32.403Z,16.68
2014-09-22T09:34:37.076Z,16.74
2014-09-22T09:35:42.062Z,16.88
2014-09-22T09:36:46.736Z,17.06
2014-09-22T09:37:51.425Z,16.87
2014-09-22T09:38:56.115Z,16.95
2014-09-22T09:40:01.101Z,17.04
2014-09-22T09:41:06.088Z,17.19
2014-09-22T09:42:11.074Z,17.2
2014-09-22T09:43:15.748Z,17.12
2014-09-22T09:44:20.437Z,17.21
2014-09-22T09:45:25.112Z,17.04
2014-09-22T09:46:29.802Z,17.04
2014-09-22T09:47:34.491Z,17.16
2014-09-22T09:48:39.165Z,17.12
2014-09-22T09:49:43.855Z,17.04
2014-09-22T09:50:48.529Z,16.96
2014-09-22T09:51:53.233Z,17.14
2014-09-22T09:52:58.204Z,17.21
2014-09-22T09:54:02.206Z,17.19
2014-09-22T09:55:06.880Z,17.2
2014-09-22T09:56:11.867Z,17.25
2014-09-22T09:57:16.541Z,17.25
2014-09-22T09:58:21.215Z,16.96
2014-09-22T09:59:26.202Z,17.2
2014-09-22T10:00:30.876Z,16.92
2014-09-22T10:01:35.565Z,17.36
2014-09-22T10:02:40.239Z,17.38
2014-09-22T10:03:44.929Z,17.22
2014-09-22T10:04:49.602Z,17.34
2014-09-22T10:05:54.292Z,17.16
2014-09-22T10:06:58.965Z,17.4
2014-09-22T10:08:03.654Z,17.08
2014-09-22T10:09:08.344Z,17.09
2014-09-22T10:10:13.315Z,17.26
2014-09-22T10:11:18.004Z,17.24
2014-09-22T10:12:22.694Z,17.2
2014-09-22T10:13:27.369Z,17.19
2014-09-22T10:14:32.059Z,17.11
2014-09-22T10:15:36.733Z,17.29
2014-09-22T10:16:41.422Z,17.42
2014-09-22T10:17:46.095Z,17.38
2014-09-22T10:18:51.083Z,17.28
2014-09-22T10:19:56.069Z,17.32
2014-09-22T10:21:01.056Z,17.09
2014-09-22T10:22:05.761Z,17.12
2014-09-22T10:23:10.435Z,16.92
2014-09-22T10:24:15.124Z,16.9
2014-09-22T10:25:19.799Z,17.18
2014-09-22T10:26:24.785Z,17.22
2014-09-22T10:27:29.756Z,17.32
2014-09-22T10:28:34.430Z,17.49
2014-09-22T10:29:39.119Z,17.48
2014-09-22T10:30:44.107Z,17.7
2014-09-22T10:31:48.779Z,17.95
2014-09-22T10:32:53.470Z,17.87
2014-09-22T10:33:58.144Z,17.51
2014-09-22T10:35:02.833Z,17.64
2014-09-22T10:36:07.804Z,17.79
2014-09-22T10:37:12.775Z,17.7
2014-09-22T10:38:17.464Z,17.98
2014-09-22T10:39:22.435Z,17.69
2014-09-22T10:40:27.125Z,17.75
2014-09-22T10:41:31.798Z,17.9
2014-09-22T10:42:36.488Z,17.92
2014-09-22T10:43:41.162Z,18.08
2014-09-22T10:44:45.851Z,18.03
2014-09-22T10:45:50.838Z,18.01
2014-09-22T10:46:55.824Z,17.98
2014-09-22T10:48:00.498Z,18.1
2014-09-22T10:49:05.186Z,17.54
2014-09-22T10:50:09.860Z,17.72
2014-09-22T10:51:14.550Z,17.9
2014-09-22T10:52:19.239Z,17.66
2014-09-22T10:53:23.913Z,17.67
2014-09-22T10:54:28.589Z,17.62
2014-09-22T10:55:33.575Z,17.78
2014-09-22T10:56:38.249Z,18.06
2014-09-22T10:57:43.235Z,17.96
2014-09-22T10:58:48.206Z,18.09
2014-09-22T10:59:52.896Z,18.28
2014-09-22T11:00:57.585Z,18.21
2014-09-22T11:02:02.258Z,18.18
2014-09-22T11:03:06.948Z,18.28
2014-09-22T11:04:11.624Z,18.34
2014-09-22T11:05:16.298Z,18.33
2014-09-22T11:06:20.987Z,18.25
2014-09-22T11:07:25.677Z,18.38
2014-09-22T11:08:30.350Z,18.48
2014-09-22T11:09:35.039Z,18.48
2014-09-22T11:10:39.713Z,18.09
2014-09-22T11:11:44.402Z,18.03
2014-09-22T11:12:49.076Z,18.09
2014-09-22T11:13:53.805Z,17.58
2014-09-22T11:14:58.820Z,17.7
2014-09-22T11:16:03.555Z,17.86
2014-09-22T11:17:08.571Z,17.86
2014-09-22T11:18:13.305Z,17.66
2014-09-22T11:19:18.296Z,17.5
2014-09-22T11:20:23.001Z,17.57
2014-09-22T11:21:27.691Z,17.56
2014-09-22T11:22:32.399Z,17.6
2014-09-22T11:23:37.096Z,17.65
2014-09-22T11:24:41.777Z,17.74
2014-09-22T11:25:46.472Z,17.85
2014-09-22T11:26:51.153Z,17.36
2014-09-22T11:27:55.847Z,17.14
2014-09-22T11:29:00.523Z,17.35
2014-09-22T11:30:05.215Z,17.27
2014-09-22T11:31:10.188Z,17.14
2014-09-22T11:32:14.880Z,17.18
2014-09-22T11:33:19.867Z,17.34
2014-09-22T11:34:24.541Z,17.63
2014-09-22T11:35:29.233Z,17.7
2014-09-22T11:36:33.907Z,17.76
2014-09-22T11:37:38.597Z,17.57
2014-09-22T11:38:43.568Z,17.6
2014-09-22T11:39:48.257Z,17.66
2014-09-22T11:40:52.932Z,17.64
2014-09-22T11:41:57.623Z,17.62
2014-09-22T11:43:02.312Z,17.52
2014-09-22T11:44:07.002Z,17.58
2014-09-22T11:45:11.988Z,17.38
2014-09-22T11:46:16.662Z,17.67
2014-09-22T11:47:21.648Z,17.69
2014-09-22T11:48:26.321Z,17.45
2014-09-22T11:49:31.013Z,17.46
2014-09-22T11:50:35.984Z,17.86
2014-09-22T11:51:40.673Z,18.07
2014-09-22T11:52:45.348Z,17.74
2014-09-22T11:53:49.350Z,17.77
2014-09-22T11:54:54.038Z,17.75
2014-09-22T11:55:58.728Z,17.74
2014-09-22T11:57:03.403Z,17.61
2014-09-22T11:58:08.091Z,17.77
2014-09-22T11:59:13.079Z,17.79
2014-09-22T12:00:17.753Z,17.85
2014-09-22T12:01:22.442Z,17.82
2014-09-22T12:02:27.132Z,17.62
2014-09-22T12:03:31.821Z,17.5
2014-09-22T12:04:36.495Z,17.75
2014-09-22T12:05:41.169Z,17.82
2014-09-22T12:06:45.858Z,17.91
2014-09-22T12:07:50.548Z,18.02
2014-09-22T12:08:55.519Z,18.06
2014-09-22T12:10:00.208Z,17.89
2014-09-22T12:11:04.882Z,17.94
2014-09-22T12:12:09.587Z,17.96
2014-09-22T12:13:14.573Z,17.86
2014-09-22T12:14:19.246Z,17.88
2014-09-22T12:15:23.936Z,17.88
2014-09-22T12:16:28.907Z,17.61
2014-09-22T12:17:33.895Z,17.37
2014-09-22T12:18:38.569Z,17.14
2014-09-22T12:19:43.257Z,17.3
2014-09-22T12:20:47.931Z,17.29
2014-09-22T12:21:52.918Z,17.06
2014-09-22T12:22:57.591Z,16.94
2014-09-22T12:24:02.579Z,17.19
2014-09-22T12:25:07.863Z,17.22
2014-09-22T12:26:12.537Z,17.1
2014-09-22T12:27:17.226Z,17.08
2014-09-22T12:28:21.899Z,17.18
2014-09-22T12:29:26.871Z,17.4
2014-09-22T12:30:31.561Z,17.36
2014-09-22T12:31:36.546Z,17.54
2014-09-22T12:32:41.518Z,17.4
2014-09-22T12:33:46.207Z,17.48
2014-09-22T12:34:51.178Z,17.64
2014-09-22T12:35:56.164Z,17.8
2014-09-22T12:37:01.135Z,17.55
2014-09-22T12:38:05.137Z,17.65
2014-09-22T12:39:09.811Z,17.68
2014-09-22T12:40:14.500Z,17.72
2014-09-22T12:41:19.189Z,17.69
2014-09-22T12:42:24.160Z,17.7
2014-09-22T12:43:28.849Z,17.84
2014-09-22T12:44:33.525Z,17.92
2014-09-22T12:45:38.214Z,17.92
2014-09-22T12:46:43.184Z,17.78
2014-09-22T12:47:47.874Z,17.82
2014-09-22T12:48:52.846Z,17.74
2014-09-22T12:49:57.518Z,17.82
2014-09-22T12:51:02.208Z,17.66
2014-09-22T12:52:06.883Z,17.65
2014-09-22T12:53:10.884Z,17.68
2014-09-22T12:54:15.871Z,17.33
2014-09-22T12:55:20.546Z,17.57
2014-09-22T12:56:25.236Z,17.6
2014-09-22T12:57:30.205Z,17.44
2014-09-22T12:58:34.895Z,17.48
2014-09-22T12:59:39.570Z,17.63
2014-09-22T13:00:44.243Z,17.56
2014-09-22T13:01:48.932Z,17.75
2014-09-22T13:02:53.903Z,17.91
2014-09-22T13:03:58.890Z,17.93
2014-09-22T13:05:03.581Z,17.95
2014-09-22T13:06:08.254Z,18.02
2014-09-22T13:07:12.943Z,18.05
2014-09-22T13:08:17.618Z,17.99
2014-09-22T13:09:22.307Z,17.97
2014-09-22T13:10:27.277Z,18.13
2014-09-22T13:11:31.968Z,18.09
2014-09-22T13:12:36.657Z,18.43
2014-09-22T13:13:41.331Z,18.41
2014-09-22T13:14:46.020Z,18.28
2014-09-22T13:15:50.710Z,18.26
2014-09-22T13:16:55.400Z,18.5
2014-09-22T13:18:00.073Z,18.24
2014-09-22T13:19:04.763Z,18.4
2014-09-22T13:20:09.437Z,18.48
2014-09-22T13:21:14.126Z,17.92
2014-09-22T13:22:18.800Z,17.81
2014-09-22T13:23:23.491Z,17.95
2014-09-22T13:24:28.164Z,17.92
2014-09-22T13:25:32.837Z,17.93
2014-09-22T13:26:37.528Z,17.72
2014-09-22T13:27:42.202Z,17.7
2014-09-22T13:28:46.890Z,17.56
2014-09-22T13:29:51.564Z,17.77
2014-09-22T13:30:56.255Z,17.78
2014-09-22T13:32:00.929Z,17.43
2014-09-22T13:33:05.915Z,17.32
2014-09-22T13:34:10.589Z,17.33
2014-09-22T13:35:15.278Z,17.43
2014-09-22T13:36:19.952Z,17.3
2014-09-22T13:37:24.642Z,17.32
2014-09-22T13:38:29.331Z,17.18
2014-09-22T13:39:34.021Z,17.44
2014-09-22T13:40:38.710Z,17.35
2014-09-22T13:41:43.697Z,17.24
2014-09-22T13:42:48.386Z,17.44
2014-09-22T13:43:53.076Z,17.6
2014-09-22T13:44:58.046Z,17.47
2014-09-22T13:46:02.720Z,17.64
2014-09-22T13:47:07.410Z,17.68
2014-09-22T13:48:12.099Z,17.44
2014-09-22T13:49:16.773Z,17.52
2014-09-22T13:50:21.463Z,17.61
2014-09-22T13:51:26.433Z,17.62
2014-09-22T13:52:31.420Z,17.46
2014-09-22T13:53:36.094Z,17.76
2014-09-22T13:54:40.784Z,17.92
2014-09-22T13:55:45.458Z,18
2014-09-22T13:56:50.444Z,17.82
2014-09-22T13:57:55.431Z,17.73